Hauptseite
METAR-TAF:

METAR-TAF

Flughäfen :

George F. L. Charles Airport

Castries, St. Lucia

Breite: 14-01N, Länge: 061-00W, Höhe: 2 m

Beobachtung

Neuester Wetterbericht von vor 2 Stunden und 32 Minuten, um 00:00 UTC
Wind 7 kt aus Ost
Temperatur 26°C
Luftfeuchtigkeit 74%
Luftdruck 1019 hPa
Sichtweite 10 km oder mehr
Aufgelockert bewölkt in der Höhe von 2500 ft

METAR: TLPC 160000Z 09007KT 9999 SCT025 26/21 Q1019 NOSIG

Zeit: 22:32 (02:32 UTC)

Prognose

Neuester Wetterbericht von vor 3 Stunden und 32 Minuten, um 23:00 UTC
Gültige Prognose vom 16 um 00 UTC bis 16 um 24 UTC
Wind 10 kt aus Ost, Böen bis zu 20 kt
Sichtweite 10 km oder mehr
Aufgelockert bewölkt in der Höhe von 2500 ft

TAF: TLPC 152300Z 1600/1624 10010G20KT 9999 SCT025

Wetterbeobachtungen und Prognosen von mehr als 4000 Flughäfen (METAR und TAF Bericht).

Die verfügbaren Stationen werden durch gelbe und rote Markierungen auf der Karte dargestellt.

Führen Sie die Maus auf sie, um den Namen der Station zu sehen.

Darauf klicken, um die Beobachtung von Wetterbeobachtungen und Prognosen zu sehen.

Um die Karte zu ändern : klicken Sie auf den grünen Tasten mit einem schwarzen Kreuz Zum Vergrößern, auf den grünen Button mit einem Gedankenstrich zu verkleinern, oder auf die grünen Pfeile für benachbarte Karten.


METAR-TAF: